Hope, North Dakota
Current Conditions -  °F | °C
As of 6:35 AM on Monday 20 Oct 2014 (Local Time) from KBAC Reporting Station
Clear Clear  
Wind Chill: 32°   Ceiling: Unl
Heat Index: 37°   Visibility: 10mi
Dew Point: 37°   Wind: 7mph
Humidity: 100%   Direction: 320°NW
Pressure: 30.04"   Gusts: NA
Location:  47.32°N, 97.72°W
Report Text: KBAC 201135Z AUTO 32006KT 10SM CLR 03/03 A3004 RMK AO2
Loading
Personal Weather Stations






























Interactive Weather Map
Tropical Storm Tracking
New forecast layout! Learn more

10-Day Weather Forecast

Advertisements
Track Severe Weather on mobile